createdAt,value
2018-09-25T00:00:06.518Z,103615.34
2018-09-25T00:02:40.990Z,103614.98
2018-09-25T00:05:15.429Z,103620.36
2018-09-25T00:07:49.701Z,103627.67
2018-09-25T00:10:24.197Z,103632.03
2018-09-25T00:12:58.691Z,103635.02
2018-09-25T00:15:33.154Z,103644.36
2018-09-25T00:18:07.548Z,103635.60
2018-09-25T00:20:41.837Z,103650.31
2018-09-25T00:23:16.208Z,103641.35
2018-09-25T00:25:50.547Z,103619.34
2018-09-25T00:28:25.050Z,103618.58
2018-09-25T00:30:59.431Z,103625.70
2018-09-25T00:33:50.705Z,103635.68
2018-09-25T00:36:25.171Z,103633.81
2018-09-25T00:38:59.478Z,103638.81
2018-09-25T00:41:33.990Z,103626.23
2018-09-25T00:44:08.304Z,103635.97
2018-09-25T00:46:42.838Z,103628.68
2018-09-25T00:49:17.118Z,103627.37
2018-09-25T00:51:51.598Z,103638.02
2018-09-25T00:54:25.875Z,103631.17
2018-09-25T00:57:00.562Z,103634.17
2018-09-25T00:59:34.918Z,103626.86
2018-09-25T01:02:09.787Z,103634.38
2018-09-25T01:04:44.050Z,103640.43
2018-09-25T01:07:18.491Z,103640.50
2018-09-25T01:09:52.886Z,103647.33
2018-09-25T01:12:27.345Z,103643.70
2018-09-25T01:15:01.554Z,103654.56
2018-09-25T01:17:35.965Z,103653.48
2018-09-25T01:20:10.579Z,103651.27
2018-09-25T01:22:44.870Z,103652.70
2018-09-25T01:25:19.266Z,103652.63
2018-09-25T01:27:53.506Z,103649.44
2018-09-25T01:30:28.007Z,103651.07
2018-09-25T01:33:02.343Z,103650.78
2018-09-25T01:35:36.686Z,103653.52
2018-09-25T01:38:11.236Z,103655.66
2018-09-25T01:40:45.566Z,103654.54
2018-09-25T01:43:19.919Z,103658.08
2018-09-25T01:45:54.187Z,103654.03
2018-09-25T01:48:28.623Z,103654.03
2018-09-25T01:51:03.018Z,103652.41
2018-09-25T01:53:37.492Z,103647.02
2018-09-25T01:56:11.880Z,103661.15
2018-09-25T01:58:46.276Z,103668.25
2018-09-25T02:01:20.471Z,103663.13
2018-09-25T02:03:54.711Z,103665.29
2018-09-25T02:06:29.119Z,103660.64
2018-09-25T02:09:03.450Z,103665.61
2018-09-25T02:11:37.824Z,103673.23
2018-09-25T02:14:12.239Z,103678.34
2018-09-25T02:16:46.683Z,103674.55
2018-09-25T02:19:21.166Z,103670.16
2018-09-25T02:21:55.615Z,103671.05
2018-09-25T02:24:29.883Z,103670.72
2018-09-25T02:27:04.199Z,103671.50
2018-09-25T02:29:38.741Z,103674.75
2018-09-25T02:32:13.410Z,103673.08
2018-09-25T02:34:47.828Z,103680.72
2018-09-25T02:37:22.168Z,103685.30
2018-09-25T02:39:56.471Z,103685.37
2018-09-25T02:42:30.992Z,103679.42
2018-09-25T02:45:05.458Z,103689.44
2018-09-25T02:47:39.678Z,103689.09
2018-09-25T02:50:14.312Z,103695.23
2018-09-25T02:52:48.679Z,103690.24
2018-09-25T02:55:23.003Z,103699.61
2018-09-25T02:57:57.492Z,103698.03
2018-09-25T03:00:32.058Z,103705.58
2018-09-25T03:03:06.437Z,103707.74
2018-09-25T03:05:41.052Z,103712.37
2018-09-25T03:08:15.493Z,103710.78
2018-09-25T03:10:49.991Z,103721.15
2018-09-25T03:13:24.274Z,103715.14
2018-09-25T03:15:58.516Z,103707.29
2018-09-25T03:18:32.860Z,103707.27
2018-09-25T03:21:07.384Z,103711.67
2018-09-25T03:23:41.905Z,103711.41
2018-09-25T03:26:16.376Z,103712.48
2018-09-25T03:28:51.004Z,103710.87
2018-09-25T03:31:25.251Z,103707.09
2018-09-25T03:33:59.487Z,103710.63
2018-09-25T03:36:33.937Z,103713.89
2018-09-25T03:39:08.454Z,103713.09
2018-09-25T03:41:43.006Z,103715.81
2018-09-25T03:44:17.425Z,103715.50
2018-09-25T03:46:51.807Z,103715.17
2018-09-25T03:49:26.079Z,103721.98
2018-09-25T03:52:00.948Z,103723.12
2018-09-25T03:54:35.296Z,103720.92
2018-09-25T03:57:09.580Z,103726.70
2018-09-25T03:59:44.083Z,103725.87
2018-09-25T04:02:18.339Z,103729.42
2018-09-25T04:04:52.615Z,103730.78
2018-09-25T04:07:26.804Z,103734.86
2018-09-25T04:10:01.276Z,103736.80
2018-09-25T04:12:35.700Z,103737.89
2018-09-25T04:15:10.011Z,103744.97
2018-09-25T04:17:44.155Z,103742.22
2018-09-25T04:20:18.393Z,103746.90
2018-09-25T04:22:52.718Z,103746.88
2018-09-25T04:25:27.082Z,103740.61
2018-09-25T04:28:01.565Z,103735.97
2018-09-25T04:30:35.995Z,103733.00
2018-09-25T04:33:10.636Z,103732.17
2018-09-25T04:35:45.027Z,103741.17
2018-09-25T04:38:19.322Z,103735.99
2018-09-25T04:40:53.811Z,103751.53
2018-09-25T04:43:28.283Z,103755.57
2018-09-25T04:46:02.779Z,103757.16
2018-09-25T04:48:37.246Z,103757.76
2018-09-25T04:51:11.808Z,103756.90
2018-09-25T04:53:46.310Z,103767.73
2018-09-25T04:56:20.746Z,103770.95
2018-09-25T04:58:55.172Z,103777.73
2018-09-25T05:01:29.799Z,103773.71
2018-09-25T05:04:04.465Z,103768.21
2018-09-25T05:06:39.031Z,103759.61
2018-09-25T05:09:13.466Z,103753.91
2018-09-25T05:11:47.811Z,103764.27
2018-09-25T05:14:22.227Z,103762.11
2018-09-25T05:16:56.762Z,103760.45
2018-09-25T05:19:30.963Z,103763.42
2018-09-25T05:22:05.491Z,103770.77
2018-09-25T05:24:39.829Z,103773.23
2018-09-25T05:27:14.136Z,103776.20
2018-09-25T05:29:48.363Z,103784.66
2018-09-25T05:32:22.729Z,103786.98
2018-09-25T05:34:57.429Z,103789.47
2018-09-25T05:37:31.861Z,103790.20
2018-09-25T05:40:09.235Z,103795.69
2018-09-25T05:42:43.499Z,103798.44
2018-09-25T05:45:17.853Z,103802.08
2018-09-25T05:47:58.503Z,103806.81
2018-09-25T05:50:32.779Z,103805.38
2018-09-25T05:53:07.348Z,103814.87
2018-09-25T05:55:41.902Z,103820.88
2018-09-25T05:58:16.182Z,103822.26
2018-09-25T06:00:50.545Z,103821.95
2018-09-25T06:03:24.795Z,103826.59
2018-09-25T06:05:59.536Z,103828.19
2018-09-25T06:08:33.878Z,103831.70
2018-09-25T06:11:08.375Z,103832.05
2018-09-25T06:13:42.671Z,103836.50
2018-09-25T06:16:17.038Z,103832.42
2018-09-25T06:18:51.492Z,103826.16
2018-09-25T06:21:25.824Z,103835.44
2018-09-25T06:24:00.334Z,103837.63
2018-09-25T06:26:34.766Z,103838.73
2018-09-25T06:29:09.172Z,103841.38
2018-09-25T06:31:43.471Z,103842.98
2018-09-25T06:34:17.839Z,103843.88
2018-09-25T06:36:52.149Z,103844.73
2018-09-25T06:39:26.543Z,103841.69
2018-09-25T06:42:00.796Z,103847.96
2018-09-25T06:44:35.157Z,103837.63
2018-09-25T06:47:09.679Z,103834.63
2018-09-25T06:49:44.102Z,103837.37
2018-09-25T06:52:18.430Z,103846.35
2018-09-25T06:54:52.766Z,103842.56
2018-09-25T06:57:27.119Z,103839.55
2018-09-25T07:00:01.272Z,103841.48
2018-09-25T07:02:35.627Z,103849.63
2018-09-25T07:05:10.012Z,103850.20
2018-09-25T07:07:44.247Z,103857.55
2018-09-25T07:10:18.734Z,103868.17
2018-09-25T07:12:52.960Z,103870.63
2018-09-25T07:15:27.603Z,103874.42
2018-09-25T07:18:02.201Z,103877.18
2018-09-25T07:20:36.443Z,103883.72
2018-09-25T07:23:10.906Z,103890.80
2018-09-25T07:25:45.250Z,103894.33
2018-09-25T07:28:20.186Z,103892.96
2018-09-25T07:30:54.639Z,103894.33
2018-09-25T07:33:28.908Z,103895.69
2018-09-25T07:36:03.246Z,103889.67
2018-09-25T07:38:37.806Z,103896.44
2018-09-25T07:41:12.514Z,103901.28
2018-09-25T07:43:47.050Z,103908.63
2018-09-25T07:46:21.299Z,103906.44
2018-09-25T07:48:56.022Z,103915.16
2018-09-25T07:51:30.355Z,103904.95
2018-09-25T07:54:04.770Z,103905.20
2018-09-25T07:56:39.271Z,103903.14
2018-09-25T07:59:13.859Z,103909.13
2018-09-25T08:01:48.108Z,103917.87
2018-09-25T08:04:22.295Z,103925.55
2018-09-25T08:06:56.586Z,103924.19
2018-09-25T08:09:30.959Z,103928.14
2018-09-25T08:12:05.161Z,103921.25
2018-09-25T08:14:39.397Z,103930.91
2018-09-25T08:17:14.024Z,103929.44
2018-09-25T08:19:48.554Z,103927.42
2018-09-25T08:22:22.762Z,103934.17
2018-09-25T08:24:57.149Z,103931.91
2018-09-25T08:27:31.535Z,103931.23
2018-09-25T08:30:05.876Z,103934.97
2018-09-25T08:32:40.099Z,103935.80
2018-09-25T08:35:14.453Z,103935.80
2018-09-25T08:37:48.761Z,103940.36
2018-09-25T08:40:23.104Z,103952.39
2018-09-25T08:42:57.398Z,103952.70
2018-09-25T08:45:31.692Z,103964.38
2018-09-25T08:48:06.210Z,103951.52
2018-09-25T08:50:40.620Z,103957.57
2018-09-25T08:53:14.820Z,103960.59
2018-09-25T08:55:49.218Z,103957.06
2018-09-25T08:58:23.631Z,103961.56
2018-09-25T09:00:58.187Z,103957.69
2018-09-25T09:03:32.448Z,103959.59
2018-09-25T09:06:06.854Z,103962.27
2018-09-25T09:08:41.568Z,103964.00
2018-09-25T09:11:16.067Z,103959.20
2018-09-25T09:13:50.429Z,103962.44
2018-09-25T09:16:24.983Z,103960.22
2018-09-25T09:18:59.458Z,103967.64
2018-09-25T09:21:34.206Z,103967.06
2018-09-25T09:24:08.588Z,103964.98
2018-09-25T09:26:42.833Z,103960.34
2018-09-25T09:29:17.133Z,103957.38
2018-09-25T09:31:51.743Z,103965.06
2018-09-25T09:34:25.994Z,103968.98
2018-09-25T09:37:00.475Z,103971.41
2018-09-25T09:39:34.820Z,103970.98
2018-09-25T09:42:09.440Z,103978.14
2018-09-25T09:44:44.036Z,103971.86
2018-09-25T09:47:18.377Z,103978.91
2018-09-25T09:49:52.755Z,103979.86
2018-09-25T09:52:27.349Z,103982.59
2018-09-25T09:55:01.985Z,103982.81
2018-09-25T09:57:36.326Z,103991.87
2018-09-25T10:00:10.920Z,103994.12
2018-09-25T10:02:45.235Z,103992.20
2018-09-25T10:05:19.428Z,103995.28
2018-09-25T10:07:53.673Z,103992.03
2018-09-25T10:10:28.016Z,103997.74
2018-09-25T10:13:02.317Z,103994.34
2018-09-25T10:15:36.575Z,103989.84
2018-09-25T10:18:11.124Z,103988.45
2018-09-25T10:20:45.444Z,103990.34
2018-09-25T10:23:19.954Z,103988.14
2018-09-25T10:25:54.336Z,103988.13
2018-09-25T10:28:28.817Z,103988.30
2018-09-25T10:31:03.094Z,103995.36
2018-09-25T10:33:37.353Z,103995.98
2018-09-25T10:36:11.802Z,103991.59
2018-09-25T10:38:46.317Z,103995.61
2018-09-25T10:41:20.496Z,103994.52
2018-09-25T10:43:54.930Z,103991.38
2018-09-25T10:46:29.260Z,103993.23
2018-09-25T10:49:03.735Z,103994.19
2018-09-25T10:51:38.012Z,103998.85
2018-09-25T10:54:12.515Z,103995.25
2018-09-25T10:56:46.724Z,103999.34
2018-09-25T10:59:21.116Z,103995.98
2018-09-25T11:01:55.454Z,103995.06
2018-09-25T11:04:29.820Z,103996.91
2018-09-25T11:07:04.171Z,103998.09
2018-09-25T11:09:38.537Z,104000.11
2018-09-25T11:12:12.838Z,103992.22
2018-09-25T11:14:47.153Z,103996.50
2018-09-25T11:17:21.622Z,103997.75
2018-09-25T11:19:56.064Z,103999.95
2018-09-25T11:22:30.428Z,103996.84
2018-09-25T11:25:04.927Z,103997.25
2018-09-25T11:27:39.065Z,103994.27
2018-09-25T11:30:13.582Z,103988.09
2018-09-25T11:32:47.952Z,103991.24
2018-09-25T11:35:22.580Z,103992.62
2018-09-25T11:37:56.863Z,103990.49
2018-09-25T11:40:31.179Z,103991.91
2018-09-25T11:43:05.499Z,103989.08
2018-09-25T11:45:39.769Z,103985.15
2018-09-25T11:48:14.360Z,103981.89
2018-09-25T11:50:48.864Z,103981.62
2018-09-25T11:53:23.296Z,103971.11
2018-09-25T11:55:57.668Z,103966.03
2018-09-25T11:58:32.014Z,103964.98
2018-09-25T12:01:06.356Z,103954.31
2018-09-25T12:03:40.772Z,103949.34
2018-09-25T12:06:15.264Z,103948.80
2018-09-25T12:08:49.655Z,103954.33
2018-09-25T12:11:24.008Z,103955.32
2018-09-25T12:13:58.199Z,103954.81
2018-09-25T12:16:32.639Z,103953.00
2018-09-25T12:19:07.156Z,103952.81
2018-09-25T12:21:41.463Z,103951.89
2018-09-25T12:24:15.798Z,103953.69
2018-09-25T12:26:50.260Z,103955.32
2018-09-25T12:29:24.525Z,103944.73
2018-09-25T12:31:58.775Z,103945.05
2018-09-25T12:34:33.062Z,103944.30
2018-09-25T12:37:07.447Z,103942.77
2018-09-25T12:39:41.805Z,103934.38
2018-09-25T12:42:16.047Z,103929.70
2018-09-25T12:44:50.442Z,103936.50
2018-09-25T12:47:24.884Z,103920.23
2018-09-25T12:49:59.351Z,103909.92
2018-09-25T12:52:33.684Z,103910.78
2018-09-25T12:55:07.989Z,103903.80
2018-09-25T12:57:42.511Z,103904.47
2018-09-25T13:00:16.900Z,103911.48
2018-09-25T13:02:51.130Z,103900.42
2018-09-25T13:05:25.540Z,103893.38
2018-09-25T13:07:59.784Z,103897.41
2018-09-25T13:10:34.027Z,103906.71
2018-09-25T13:13:08.270Z,103909.65
2018-09-25T13:15:42.459Z,103912.19
2018-09-25T13:18:16.783Z,103907.77
2018-09-25T13:20:51.113Z,103904.20
2018-09-25T13:23:25.503Z,103905.95
2018-09-25T13:26:00.237Z,103899.02
2018-09-25T13:28:34.781Z,103895.95
2018-09-25T13:31:09.019Z,103890.63
2018-09-25T13:33:43.323Z,103895.91
2018-09-25T13:36:17.807Z,103890.55
2018-09-25T13:38:52.259Z,103887.75
2018-09-25T13:41:26.720Z,103893.89
2018-09-25T13:44:01.026Z,103897.77
2018-09-25T13:46:35.534Z,103884.78
2018-09-25T13:49:09.999Z,103878.78
2018-09-25T13:51:44.363Z,103875.27
2018-09-25T13:54:18.616Z,103870.17
2018-09-25T13:56:53.125Z,103866.13
2018-09-25T13:59:27.475Z,103860.99
2018-09-25T14:02:01.891Z,103863.06
2018-09-25T14:04:36.312Z,103860.20
2018-09-25T14:07:10.552Z,103865.80
2018-09-25T14:09:44.830Z,103856.23
2018-09-25T14:12:19.143Z,103854.95
2018-09-25T14:14:53.455Z,103851.11
2018-09-25T14:17:27.680Z,103853.23
2018-09-25T14:20:01.984Z,103848.20
2018-09-25T14:22:36.294Z,103846.30
2018-09-25T14:25:10.792Z,103846.23
2018-09-25T14:27:45.262Z,103842.22
2018-09-25T14:30:19.652Z,103840.78
2018-09-25T14:32:54.012Z,103842.70
2018-09-25T14:35:28.264Z,103843.29
2018-09-25T14:38:02.555Z,103842.52
2018-09-25T14:40:36.919Z,103837.05
2018-09-25T14:43:11.291Z,103835.66
2018-09-25T14:45:45.706Z,103836.90
2018-09-25T14:48:20.167Z,103833.20
2018-09-25T14:50:54.620Z,103838.52
2018-09-25T14:53:29.366Z,103840.87
2018-09-25T14:56:03.550Z,103848.38
2018-09-25T14:58:38.324Z,103845.16
2018-09-25T15:01:12.599Z,103845.27
2018-09-25T15:03:46.931Z,103846.39
2018-09-25T15:06:21.328Z,103847.33
2018-09-25T15:08:55.895Z,103848.98
2018-09-25T15:11:30.492Z,103852.66
2018-09-25T15:14:04.756Z,103844.14
2018-09-25T15:16:38.956Z,103847.63
2018-09-25T15:19:13.358Z,103840.56
2018-09-25T15:21:47.871Z,103847.89
2018-09-25T15:24:22.121Z,103854.45
2018-09-25T15:26:56.361Z,103868.39
2018-09-25T15:29:30.815Z,103858.53
2018-09-25T15:32:05.287Z,103850.41
2018-09-25T15:34:39.592Z,103850.57
2018-09-25T15:37:13.905Z,103860.00
2018-09-25T15:39:48.141Z,103855.44
2018-09-25T15:42:22.566Z,103850.19
2018-09-25T15:44:56.980Z,103852.45
2018-09-25T15:47:31.272Z,103851.23
2018-09-25T15:50:05.711Z,103854.67
2018-09-25T15:52:40.107Z,103855.64
2018-09-25T15:55:14.405Z,103857.61
2018-09-25T15:57:48.694Z,103867.69
2018-09-25T16:00:22.976Z,103860.03
2018-09-25T16:02:57.440Z,103859.72
2018-09-25T16:05:31.752Z,103857.42
2018-09-25T16:08:06.156Z,103864.15
2018-09-25T16:10:40.583Z,103863.13
2018-09-25T16:13:14.882Z,103869.69
2018-09-25T16:15:49.327Z,103878.36
2018-09-25T16:18:23.527Z,103865.73
2018-09-25T16:20:58.007Z,103866.32
2018-09-25T16:23:32.360Z,103871.92
2018-09-25T16:26:06.863Z,103867.10
2018-09-25T16:28:41.197Z,103875.09
2018-09-25T16:31:15.465Z,103876.28
2018-09-25T16:33:49.979Z,103875.09
2018-09-25T16:36:24.298Z,103870.85
2018-09-25T16:38:58.743Z,103863.86
2018-09-25T16:41:33.009Z,103873.23
2018-09-25T16:44:07.224Z,103869.12
2018-09-25T16:46:41.522Z,103868.27
2018-09-25T16:49:15.740Z,103866.92
2018-09-25T16:51:50.405Z,103870.70
2018-09-25T16:54:24.707Z,103867.16
2018-09-25T16:56:59.119Z,103872.56
2018-09-25T16:59:33.704Z,103871.34
2018-09-25T17:02:08.156Z,103864.49
2018-09-25T17:04:42.604Z,103857.58
2018-09-25T17:07:16.939Z,103846.55
2018-09-25T17:09:51.296Z,103842.31
2018-09-25T17:12:25.737Z,103832.59
2018-09-25T17:15:00.219Z,103821.70
2018-09-25T17:17:34.693Z,103822.75
2018-09-25T17:20:09.172Z,103814.67
2018-09-25T17:22:43.480Z,103811.55
2018-09-25T17:25:17.916Z,103808.19
2018-09-25T17:27:52.212Z,103799.61
2018-09-25T17:30:26.517Z,103795.58
2018-09-25T17:33:00.954Z,103795.77
2018-09-25T17:35:35.411Z,103797.47
2018-09-25T17:38:09.811Z,103797.20
2018-09-25T17:40:44.008Z,103788.39
2018-09-25T17:43:18.287Z,103798.84
2018-09-25T17:45:52.797Z,103804.58
2018-09-25T17:48:27.271Z,103805.25
2018-09-25T17:51:01.483Z,103808.58
2018-09-25T17:53:35.930Z,103810.09
2018-09-25T17:56:10.482Z,103812.04
2018-09-25T17:58:45.006Z,103815.61
2018-09-25T18:01:19.404Z,103817.56
2018-09-25T18:03:53.650Z,103822.50
2018-09-25T18:06:27.989Z,103810.50
2018-09-25T18:09:02.436Z,103808.71
2018-09-25T18:11:36.627Z,103807.88
2018-09-25T18:14:17.896Z,103803.59
2018-09-25T18:16:52.611Z,103815.32
2018-09-25T18:19:27.012Z,103817.28
2018-09-25T18:22:01.362Z,103820.84
2018-09-25T18:24:35.575Z,103829.04
2018-09-25T18:27:10.115Z,103835.08
2018-09-25T18:29:44.387Z,103842.79
2018-09-25T18:32:18.572Z,103844.16
2018-09-25T18:34:52.888Z,103840.10
2018-09-25T18:37:27.343Z,103844.20
2018-09-25T18:40:01.803Z,103847.52
2018-09-25T18:42:37.396Z,103841.80
2018-09-25T18:45:15.807Z,103835.31
2018-09-25T18:47:50.168Z,103839.45
2018-09-25T18:50:24.645Z,103832.98
2018-09-25T18:52:58.827Z,103839.55
2018-09-25T18:55:33.107Z,103845.30
2018-09-25T18:58:07.608Z,103836.28
2018-09-25T19:00:42.044Z,103836.60
2018-09-25T19:03:16.266Z,103835.23
2018-09-25T19:05:50.626Z,103837.43
2018-09-25T19:08:25.128Z,103836.09
2018-09-25T19:10:59.319Z,103824.07
2018-09-25T19:13:33.744Z,103828.22
2018-09-25T19:16:08.279Z,103829.87
2018-09-25T19:18:42.679Z,103825.46
2018-09-25T19:21:16.914Z,103823.03
2018-09-25T19:23:51.235Z,103810.53
2018-09-25T19:26:25.556Z,103820.88
2018-09-25T19:28:59.999Z,103815.94
2018-09-25T19:31:34.425Z,103816.22
2018-09-25T19:34:08.691Z,103822.55
2018-09-25T19:36:43.006Z,103820.36
2018-09-25T19:39:17.448Z,103822.29
2018-09-25T19:41:51.949Z,103821.73
2018-09-25T19:44:26.432Z,103818.76
2018-09-25T19:47:00.782Z,103810.86
2018-09-25T19:49:35.096Z,103797.52
2018-09-25T19:52:09.413Z,103794.81
2018-09-25T19:54:43.660Z,103795.91
2018-09-25T19:57:17.900Z,103800.02
2018-09-25T19:59:52.367Z,103788.55
2018-09-25T20:02:26.736Z,103794.81
2018-09-25T20:05:01.131Z,103793.45
2018-09-25T20:07:35.396Z,103800.25
2018-09-25T20:10:10.050Z,103796.14
2018-09-25T20:12:44.337Z,103796.97
2018-09-25T20:15:18.780Z,103794.27
2018-09-25T20:17:53.263Z,103789.11
2018-09-25T20:20:27.717Z,103784.78
2018-09-25T20:23:02.165Z,103783.95
2018-09-25T20:25:36.556Z,103779.06
2018-09-25T20:28:10.948Z,103783.69
2018-09-25T20:30:45.330Z,103789.94
2018-09-25T20:33:19.828Z,103793.47
2018-09-25T20:35:54.479Z,103796.20
2018-09-25T20:38:28.838Z,103789.68
2018-09-25T20:41:03.569Z,103788.05
2018-09-25T20:43:37.775Z,103789.68
2018-09-25T20:46:12.001Z,103779.91
2018-09-25T20:48:46.380Z,103780.44
2018-09-25T20:51:20.731Z,103780.97
2018-09-25T20:53:55.301Z,103791.28
2018-09-25T20:56:29.858Z,103791.84
2018-09-25T20:59:04.112Z,103783.44
2018-09-25T21:01:38.509Z,103790.52
2018-09-25T21:04:12.920Z,103792.14
2018-09-25T21:06:47.493Z,103792.66
2018-09-25T21:09:21.845Z,103799.47
2018-09-25T21:11:56.378Z,103794.83
2018-09-25T21:14:30.827Z,103795.66
2018-09-25T21:17:05.349Z,103802.78
2018-09-25T21:19:39.660Z,103795.97
2018-09-25T21:22:14.309Z,103788.88
2018-09-25T21:24:49.333Z,103779.62
2018-09-25T21:27:23.644Z,103772.03
2018-09-25T21:29:57.882Z,103768.75
2018-09-25T21:32:32.275Z,103768.73
2018-09-25T21:35:06.599Z,103764.10
2018-09-25T21:37:41.329Z,103752.70
2018-09-25T21:40:15.801Z,103741.25
2018-09-25T21:42:50.324Z,103746.70
2018-09-25T21:45:24.578Z,103740.17
2018-09-25T21:47:59.132Z,103743.70
2018-09-25T21:50:33.752Z,103734.95
2018-09-25T21:53:08.071Z,103734.98
2018-09-25T21:55:42.378Z,103737.70
2018-09-25T21:58:16.860Z,103736.32
2018-09-25T22:00:51.145Z,103745.83
2018-09-25T22:03:25.417Z,103746.67
2018-09-25T22:05:59.742Z,103750.48
2018-09-25T22:08:34.020Z,103742.00
2018-09-25T22:11:08.498Z,103738.50
2018-09-25T22:13:42.897Z,103722.38
2018-09-25T22:16:17.211Z,103726.16
2018-09-25T22:18:51.521Z,103731.33
2018-09-25T22:21:25.951Z,103738.73
2018-09-25T22:24:00.204Z,103722.34
2018-09-25T22:26:34.754Z,103711.71
2018-09-25T22:29:09.058Z,103704.64
2018-09-25T22:31:43.317Z,103714.75
2018-09-25T22:34:17.733Z,103708.48
2018-09-25T22:36:52.078Z,103708.23
2018-09-25T22:39:26.594Z,103715.58
2018-09-25T22:42:00.894Z,103712.27
2018-09-25T22:44:35.206Z,103716.96
2018-09-25T22:47:09.547Z,103717.73
2018-09-25T22:49:43.998Z,103723.20
2018-09-25T22:52:18.486Z,103719.67
2018-09-25T22:54:53.028Z,103714.52
2018-09-25T22:57:27.402Z,103707.73
2018-09-25T23:00:01.728Z,103697.66
2018-09-25T23:02:35.958Z,103687.23
2018-09-25T23:05:10.547Z,103691.34
2018-09-25T23:07:44.875Z,103678.78
2018-09-25T23:10:19.283Z,103679.01
2018-09-25T23:12:53.541Z,103677.39
2018-09-25T23:15:27.857Z,103676.30
2018-09-25T23:18:02.195Z,103673.59
2018-09-25T23:20:36.508Z,103671.12
2018-09-25T23:23:10.984Z,103665.72
2018-09-25T23:25:45.338Z,103676.12
2018-09-25T23:28:19.619Z,103675.05
2018-09-25T23:30:54.015Z,103669.28
2018-09-25T23:33:28.810Z,103667.34
2018-09-25T23:36:03.146Z,103662.66
2018-09-25T23:38:37.514Z,103659.08
2018-09-25T23:41:12.059Z,103656.20
2018-09-25T23:43:51.806Z,103652.06
2018-09-25T23:46:28.207Z,103648.80
2018-09-25T23:49:03.536Z,103651.02
2018-09-25T23:51:37.679Z,103661.89
2018-09-25T23:54:43.112Z,103654.53
2018-09-25T23:57:14.994Z,103644.20
2018-09-25T23:59:53.363Z,103643.32
